sensor_id;sensor_type;location;lat;lon;timestamp;P1;durP1;ratioP1;P2;durP2;ratioP2
17079;SDS011;8655;57.106;-2.088;2023-07-08T00:00:23;470.05;;;434.15;;
17079;SDS011;8655;57.106;-2.088;2023-07-08T00:02:49;449.60;;;415.70;;
17079;SDS011;8655;57.106;-2.088;2023-07-08T00:05:17;461.55;;;426.70;;
17079;SDS011;8655;57.106;-2.088;2023-07-08T00:07:44;456.48;;;421.98;;
17079;SDS011;8655;57.106;-2.088;2023-07-08T00:10:12;464.52;;;429.20;;
17079;SDS011;8655;57.106;-2.088;2023-07-08T00:12:43;457.65;;;421.77;;
17079;SDS011;8655;57.106;-2.088;2023-07-08T00:15:10;450.92;;;416.33;;
17079;SDS011;8655;57.106;-2.088;2023-07-08T00:17:36;453.13;;;418.90;;
17079;SDS011;8655;57.106;-2.088;2023-07-08T00:20:12;456.00;;;421.50;;
17079;SDS011;8655;57.106;-2.088;2023-07-08T00:22:39;454.75;;;419.75;;
17079;SDS011;8655;57.106;-2.088;2023-07-08T00:25:08;461.73;;;427.05;;
17079;SDS011;8655;57.106;-2.088;2023-07-08T00:27:34;451.52;;;417.10;;
17079;SDS011;8655;57.106;-2.088;2023-07-08T00:30:00;460.50;;;425.50;;
17079;SDS011;8655;57.106;-2.088;2023-07-08T00:32:26;457.33;;;422.70;;
17079;SDS011;8655;57.106;-2.088;2023-07-08T00:34:51;440.45;;;406.83;;
17079;SDS011;8655;57.106;-2.088;2023-07-08T00:37:17;452.27;;;417.85;;
17079;SDS011;8655;57.106;-2.088;2023-07-08T00:39:43;439.05;;;405.85;;
17079;SDS011;8655;57.106;-2.088;2023-07-08T00:42:13;442.65;;;409.13;;
17079;SDS011;8655;57.106;-2.088;2023-07-08T00:44:44;444.88;;;410.83;;
17079;SDS011;8655;57.106;-2.088;2023-07-08T00:47:10;445.67;;;412.17;;
17079;SDS011;8655;57.106;-2.088;2023-07-08T00:49:55;436.90;;;403.88;;
17079;SDS011;8655;57.106;-2.088;2023-07-08T00:52:28;438.27;;;405.08;;
17079;SDS011;8655;57.106;-2.088;2023-07-08T00:54:55;428.98;;;396.23;;
17079;SDS011;8655;57.106;-2.088;2023-07-08T00:57:30;435.65;;;402.60;;
17079;SDS011;8655;57.106;-2.088;2023-07-08T01:00:32;439.85;;;406.50;;
17079;SDS011;8655;57.106;-2.088;2023-07-08T01:02:54;430.55;;;398.10;;
17079;SDS011;8655;57.106;-2.088;2023-07-08T01:05:22;417.15;;;385.83;;
17079;SDS011;8655;57.106;-2.088;2023-07-08T01:07:51;407.48;;;376.98;;
17079;SDS011;8655;57.106;-2.088;2023-07-08T01:10:27;416.85;;;385.27;;
17079;SDS011;8655;57.106;-2.088;2023-07-08T01:12:58;404.40;;;373.95;;
17079;SDS011;8655;57.106;-2.088;2023-07-08T01:15:30;400.63;;;370.13;;
17079;SDS011;8655;57.106;-2.088;2023-07-08T01:18:00;403.02;;;372.55;;
17079;SDS011;8655;57.106;-2.088;2023-07-08T01:20:27;398.98;;;368.85;;
17079;SDS011;8655;57.106;-2.088;2023-07-08T01:22:53;392.83;;;363.00;;
17079;SDS011;8655;57.106;-2.088;2023-07-08T01:25:18;383.63;;;354.98;;
17079;SDS011;8655;57.106;-2.088;2023-07-08T01:27:45;386.73;;;357.50;;
17079;SDS011;8655;57.106;-2.088;2023-07-08T01:30:14;381.38;;;352.92;;
17079;SDS011;8655;57.106;-2.088;2023-07-08T01:32:43;379.38;;;350.83;;
17079;SDS011;8655;57.106;-2.088;2023-07-08T01:35:13;373.02;;;344.75;;
17079;SDS011;8655;57.106;-2.088;2023-07-08T01:37:39;375.52;;;347.10;;
17079;SDS011;8655;57.106;-2.088;2023-07-08T01:40:14;360.25;;;333.42;;
17079;SDS011;8655;57.106;-2.088;2023-07-08T01:42:41;360.83;;;333.98;;
17079;SDS011;8655;57.106;-2.088;2023-07-08T01:45:11;350.95;;;324.88;;
17079;SDS011;8655;57.106;-2.088;2023-07-08T01:47:37;352.20;;;325.92;;
17079;SDS011;8655;57.106;-2.088;2023-07-08T01:50:05;338.38;;;313.08;;
17079;SDS011;8655;57.106;-2.088;2023-07-08T01:52:31;342.15;;;316.52;;
17079;SDS011;8655;57.106;-2.088;2023-07-08T01:54:57;336.73;;;311.73;;
17079;SDS011;8655;57.106;-2.088;2023-07-08T01:57:23;342.25;;;316.98;;
17079;SDS011;8655;57.106;-2.088;2023-07-08T01:59:48;332.73;;;308.08;;
17079;SDS011;8655;57.106;-2.088;2023-07-08T02:02:15;337.35;;;312.30;;
17079;SDS011;8655;57.106;-2.088;2023-07-08T02:04:41;328.33;;;303.92;;
17079;SDS011;8655;57.106;-2.088;2023-07-08T02:07:06;319.80;;;295.45;;
17079;SDS011;8655;57.106;-2.088;2023-07-08T02:09:32;323.67;;;299.55;;
17079;SDS011;8655;57.106;-2.088;2023-07-08T02:11:57;323.27;;;299.13;;
17079;SDS011;8655;57.106;-2.088;2023-07-08T02:14:23;313.63;;;289.80;;
17079;SDS011;8655;57.106;-2.088;2023-07-08T02:16:49;311.15;;;287.85;;
17079;SDS011;8655;57.106;-2.088;2023-07-08T02:19:14;310.15;;;286.80;;
17079;SDS011;8655;57.106;-2.088;2023-07-08T02:21:40;314.73;;;290.98;;
17079;SDS011;8655;57.106;-2.088;2023-07-08T02:24:06;314.08;;;290.05;;
17079;SDS011;8655;57.106;-2.088;2023-07-08T02:26:32;308.38;;;284.73;;
17079;SDS011;8655;57.106;-2.088;2023-07-08T02:28:58;313.95;;;290.63;;
17079;SDS011;8655;57.106;-2.088;2023-07-08T02:31:25;309.58;;;286.27;;
17079;SDS011;8655;57.106;-2.088;2023-07-08T02:33:51;314.00;;;290.58;;
17079;SDS011;8655;57.106;-2.088;2023-07-08T02:36:17;312.50;;;289.20;;
17079;SDS011;8655;57.106;-2.088;2023-07-08T02:38:43;306.73;;;283.35;;
17079;SDS011;8655;57.106;-2.088;2023-07-08T02:41:09;308.65;;;285.60;;
17079;SDS011;8655;57.106;-2.088;2023-07-08T02:43:36;310.50;;;287.33;;
17079;SDS011;8655;57.106;-2.088;2023-07-08T02:46:02;305.17;;;282.58;;
17079;SDS011;8655;57.106;-2.088;2023-07-08T02:48:28;309.13;;;286.08;;
17079;SDS011;8655;57.106;-2.088;2023-07-08T02:51:00;309.38;;;286.33;;
17079;SDS011;8655;57.106;-2.088;2023-07-08T02:53:27;300.98;;;278.70;;
17079;SDS011;8655;57.106;-2.088;2023-07-08T02:55:53;299.80;;;277.25;;
17079;SDS011;8655;57.106;-2.088;2023-07-08T02:58:19;299.38;;;277.02;;
17079;SDS011;8655;57.106;-2.088;2023-07-08T03:00:44;292.48;;;270.55;;
17079;SDS011;8655;57.106;-2.088;2023-07-08T03:03:10;299.23;;;276.80;;
17079;SDS011;8655;57.106;-2.088;2023-07-08T03:05:36;297.90;;;275.73;;
17079;SDS011;8655;57.106;-2.088;2023-07-08T03:08:01;303.33;;;280.77;;
17079;SDS011;8655;57.106;-2.088;2023-07-08T03:10:27;299.95;;;277.95;;
17079;SDS011;8655;57.106;-2.088;2023-07-08T03:12:53;296.40;;;274.38;;
17079;SDS011;8655;57.106;-2.088;2023-07-08T03:15:18;295.98;;;274.17;;
17079;SDS011;8655;57.106;-2.088;2023-07-08T03:17:44;296.55;;;274.67;;
17079;SDS011;8655;57.106;-2.088;2023-07-08T03:20:10;289.42;;;267.75;;
17079;SDS011;8655;57.106;-2.088;2023-07-08T03:22:36;293.45;;;271.63;;
17079;SDS011;8655;57.106;-2.088;2023-07-08T03:25:02;292.88;;;270.92;;
17079;SDS011;8655;57.106;-2.088;2023-07-08T03:27:28;286.95;;;265.50;;
17079;SDS011;8655;57.106;-2.088;2023-07-08T03:29:54;279.58;;;258.42;;
17079;SDS011;8655;57.106;-2.088;2023-07-08T03:32:20;284.92;;;263.58;;
17079;SDS011;8655;57.106;-2.088;2023-07-08T03:34:45;282.02;;;260.98;;
17079;SDS011;8655;57.106;-2.088;2023-07-08T03:37:11;279.48;;;258.50;;
17079;SDS011;8655;57.106;-2.088;2023-07-08T03:39:37;285.48;;;264.15;;
17079;SDS011;8655;57.106;-2.088;2023-07-08T03:42:02;287.95;;;266.35;;
17079;SDS011;8655;57.106;-2.088;2023-07-08T03:44:29;283.90;;;262.45;;
17079;SDS011;8655;57.106;-2.088;2023-07-08T03:46:55;282.25;;;261.17;;
17079;SDS011;8655;57.106;-2.088;2023-07-08T03:49:21;279.77;;;259.13;;
17079;SDS011;8655;57.106;-2.088;2023-07-08T03:51:49;280.80;;;260.00;;
17079;SDS011;8655;57.106;-2.088;2023-07-08T03:54:17;276.02;;;255.25;;
17079;SDS011;8655;57.106;-2.088;2023-07-08T03:56:44;276.92;;;256.40;;
17079;SDS011;8655;57.106;-2.088;2023-07-08T03:59:10;273.10;;;252.77;;
17079;SDS011;8655;57.106;-2.088;2023-07-08T04:01:36;265.75;;;246.05;;
17079;SDS011;8655;57.106;-2.088;2023-07-08T04:04:06;272.88;;;252.60;;
17079;SDS011;8655;57.106;-2.088;2023-07-08T04:06:35;271.70;;;251.65;;
17079;SDS011;8655;57.106;-2.088;2023-07-08T04:09:00;272.08;;;251.85;;
17079;SDS011;8655;57.106;-2.088;2023-07-08T04:11:26;270.52;;;250.55;;
17079;SDS011;8655;57.106;-2.088;2023-07-08T04:13:52;270.95;;;250.48;;
17079;SDS011;8655;57.106;-2.088;2023-07-08T04:16:42;267.08;;;246.93;;
17079;SDS011;8655;57.106;-2.088;2023-07-08T04:19:19;260.70;;;241.25;;
17079;SDS011;8655;57.106;-2.088;2023-07-08T04:21:47;265.98;;;245.68;;
17079;SDS011;8655;57.106;-2.088;2023-07-08T04:24:14;258.10;;;238.65;;
17079;SDS011;8655;57.106;-2.088;2023-07-08T04:26:41;259.05;;;239.73;;
17079;SDS011;8655;57.106;-2.088;2023-07-08T04:29:11;257.63;;;238.52;;
17079;SDS011;8655;57.106;-2.088;2023-07-08T04:31:38;252.32;;;233.20;;
17079;SDS011;8655;57.106;-2.088;2023-07-08T04:34:04;248.95;;;230.40;;
17079;SDS011;8655;57.106;-2.088;2023-07-08T04:36:31;251.48;;;232.77;;
17079;SDS011;8655;57.106;-2.088;2023-07-08T04:38:57;243.27;;;225.15;;
17079;SDS011;8655;57.106;-2.088;2023-07-08T04:41:23;249.50;;;230.55;;
17079;SDS011;8655;57.106;-2.088;2023-07-08T04:43:52;243.93;;;225.88;;
17079;SDS011;8655;57.106;-2.088;2023-07-08T04:46:25;244.95;;;226.80;;
17079;SDS011;8655;57.106;-2.088;2023-07-08T04:49:00;240.95;;;223.05;;
17079;SDS011;8655;57.106;-2.088;2023-07-08T04:51:26;242.48;;;224.25;;
17079;SDS011;8655;57.106;-2.088;2023-07-08T04:53:52;236.05;;;218.30;;
17079;SDS011;8655;57.106;-2.088;2023-07-08T04:56:18;239.68;;;221.70;;
17079;SDS011;8655;57.106;-2.088;2023-07-08T04:58:44;233.55;;;216.23;;
17079;SDS011;8655;57.106;-2.088;2023-07-08T05:01:09;228.45;;;211.35;;
17079;SDS011;8655;57.106;-2.088;2023-07-08T05:03:35;232.70;;;215.50;;
17079;SDS011;8655;57.106;-2.088;2023-07-08T05:06:01;226.45;;;209.48;;
17079;SDS011;8655;57.106;-2.088;2023-07-08T05:08:27;227.38;;;210.40;;
17079;SDS011;8655;57.106;-2.088;2023-07-08T05:10:52;226.95;;;209.98;;
17079;SDS011;8655;57.106;-2.088;2023-07-08T05:13:18;221.55;;;204.88;;
17079;SDS011;8655;57.106;-2.088;2023-07-08T05:15:44;224.15;;;207.45;;
17079;SDS011;8655;57.106;-2.088;2023-07-08T05:18:09;218.88;;;202.32;;
17079;SDS011;8655;57.106;-2.088;2023-07-08T05:20:35;217.05;;;200.60;;
17079;SDS011;8655;57.106;-2.088;2023-07-08T05:23:01;210.65;;;194.50;;
17079;SDS011;8655;57.106;-2.088;2023-07-08T05:25:30;208.40;;;192.75;;
17079;SDS011;8655;57.106;-2.088;2023-07-08T05:27:57;207.02;;;191.38;;
17079;SDS011;8655;57.106;-2.088;2023-07-08T05:30:22;202.57;;;187.30;;
17079;SDS011;8655;57.106;-2.088;2023-07-08T05:32:48;202.23;;;186.93;;
17079;SDS011;8655;57.106;-2.088;2023-07-08T05:35:14;194.25;;;179.52;;
17079;SDS011;8655;57.106;-2.088;2023-07-08T05:37:40;190.68;;;176.02;;
17079;SDS011;8655;57.106;-2.088;2023-07-08T05:40:07;200.32;;;185.13;;
17079;SDS011;8655;57.106;-2.088;2023-07-08T05:42:33;196.23;;;181.10;;
17079;SDS011;8655;57.106;-2.088;2023-07-08T05:44:59;192.23;;;177.77;;
17079;SDS011;8655;57.106;-2.088;2023-07-08T05:47:25;189.63;;;175.15;;
17079;SDS011;8655;57.106;-2.088;2023-07-08T05:49:51;183.05;;;169.18;;
17079;SDS011;8655;57.106;-2.088;2023-07-08T05:52:16;180.65;;;166.32;;
17079;SDS011;8655;57.106;-2.088;2023-07-08T05:54:42;176.75;;;163.13;;
17079;SDS011;8655;57.106;-2.088;2023-07-08T05:57:09;174.98;;;161.18;;
17079;SDS011;8655;57.106;-2.088;2023-07-08T05:59:35;173.70;;;159.93;;
17079;SDS011;8655;57.106;-2.088;2023-07-08T06:02:02;169.63;;;156.52;;
17079;SDS011;8655;57.106;-2.088;2023-07-08T06:04:28;170.70;;;157.48;;
17079;SDS011;8655;57.106;-2.088;2023-07-08T06:06:54;166.57;;;153.75;;
17079;SDS011;8655;57.106;-2.088;2023-07-08T06:09:19;165.00;;;151.57;;
17079;SDS011;8655;57.106;-2.088;2023-07-08T06:11:45;164.07;;;151.52;;
17079;SDS011;8655;57.106;-2.088;2023-07-08T06:14:11;162.82;;;150.00;;
17079;SDS011;8655;57.106;-2.088;2023-07-08T06:16:36;160.63;;;148.35;;
17079;SDS011;8655;57.106;-2.088;2023-07-08T06:19:02;159.00;;;146.77;;
17079;SDS011;8655;57.106;-2.088;2023-07-08T06:21:28;154.63;;;142.60;;
17079;SDS011;8655;57.106;-2.088;2023-07-08T06:23:54;154.65;;;142.85;;
17079;SDS011;8655;57.106;-2.088;2023-07-08T06:26:19;147.80;;;136.50;;
17079;SDS011;8655;57.106;-2.088;2023-07-08T06:28:45;146.35;;;135.13;;
17079;SDS011;8655;57.106;-2.088;2023-07-08T06:31:11;138.85;;;128.38;;
17079;SDS011;8655;57.106;-2.088;2023-07-08T06:33:36;128.52;;;118.85;;
17079;SDS011;8655;57.106;-2.088;2023-07-08T06:36:02;129.38;;;119.47;;
17079;SDS011;8655;57.106;-2.088;2023-07-08T06:38:28;132.27;;;122.25;;
17079;SDS011;8655;57.106;-2.088;2023-07-08T06:40:53;133.00;;;122.78;;
17079;SDS011;8655;57.106;-2.088;2023-07-08T06:43:19;131.23;;;121.22;;
17079;SDS011;8655;57.106;-2.088;2023-07-08T06:45:45;135.07;;;124.68;;
17079;SDS011;8655;57.106;-2.088;2023-07-08T06:48:10;131.23;;;119.63;;
17079;SDS011;8655;57.106;-2.088;2023-07-08T06:50:37;155.68;;;127.78;;
17079;SDS011;8655;57.106;-2.088;2023-07-08T06:53:03;207.38;;;141.07;;
17079;SDS011;8655;57.106;-2.088;2023-07-08T06:55:29;204.65;;;138.38;;
17079;SDS011;8655;57.106;-2.088;2023-07-08T06:57:55;190.98;;;134.07;;
17079;SDS011;8655;57.106;-2.088;2023-07-08T07:00:21;200.68;;;130.82;;
17079;SDS011;8655;57.106;-2.088;2023-07-08T07:02:46;182.13;;;134.07;;
17079;SDS011;8655;57.106;-2.088;2023-07-08T07:05:12;166.10;;;132.82;;
17079;SDS011;8655;57.106;-2.088;2023-07-08T07:07:38;165.63;;;136.75;;
17079;SDS011;8655;57.106;-2.088;2023-07-08T07:10:03;163.13;;;131.95;;
17079;SDS011;8655;57.106;-2.088;2023-07-08T07:12:30;166.10;;;137.23;;
17079;SDS011;8655;57.106;-2.088;2023-07-08T07:14:56;162.20;;;133.00;;
17079;SDS011;8655;57.106;-2.088;2023-07-08T07:17:23;152.30;;;131.98;;
17079;SDS011;8655;57.106;-2.088;2023-07-08T07:19:53;164.10;;;136.63;;
17079;SDS011;8655;57.106;-2.088;2023-07-08T07:22:19;154.43;;;137.13;;
17079;SDS011;8655;57.106;-2.088;2023-07-08T07:24:44;148.98;;;132.85;;
17079;SDS011;8655;57.106;-2.088;2023-07-08T07:27:10;155.77;;;135.32;;
17079;SDS011;8655;57.106;-2.088;2023-07-08T07:29:47;146.88;;;131.15;;
17079;SDS011;8655;57.106;-2.088;2023-07-08T07:32:14;150.48;;;134.07;;
17079;SDS011;8655;57.106;-2.088;2023-07-08T07:34:41;154.80;;;131.27;;
17079;SDS011;8655;57.106;-2.088;2023-07-08T07:37:10;145.00;;;129.10;;
17079;SDS011;8655;57.106;-2.088;2023-07-08T07:39:37;145.60;;;129.85;;
17079;SDS011;8655;57.106;-2.088;2023-07-08T07:42:04;141.15;;;126.25;;
17079;SDS011;8655;57.106;-2.088;2023-07-08T07:44:30;141.20;;;125.93;;
17079;SDS011;8655;57.106;-2.088;2023-07-08T07:46:56;133.90;;;120.00;;
17079;SDS011;8655;57.106;-2.088;2023-07-08T07:49:21;39.92;;;32.55;;
17079;SDS011;8655;57.106;-2.088;2023-07-08T07:51:47;27.05;;;16.50;;
17079;SDS011;8655;57.106;-2.088;2023-07-08T07:54:13;21.27;;;12.30;;
17079;SDS011;8655;57.106;-2.088;2023-07-08T07:56:39;19.45;;;9.40;;
17079;SDS011;8655;57.106;-2.088;2023-07-08T07:59:05;17.60;;;8.20;;
17079;SDS011;8655;57.106;-2.088;2023-07-08T08:01:30;15.57;;;7.18;;
17079;SDS011;8655;57.106;-2.088;2023-07-08T08:03:56;16.63;;;8.23;;
17079;SDS011;8655;57.106;-2.088;2023-07-08T08:06:22;15.63;;;7.72;;
17079;SDS011;8655;57.106;-2.088;2023-07-08T08:08:48;17.90;;;7.22;;
17079;SDS011;8655;57.106;-2.088;2023-07-08T08:11:14;14.95;;;6.88;;
17079;SDS011;8655;57.106;-2.088;2023-07-08T08:13:40;16.05;;;6.68;;
17079;SDS011;8655;57.106;-2.088;2023-07-08T08:16:06;16.10;;;6.47;;
17079;SDS011;8655;57.106;-2.088;2023-07-08T08:18:32;14.88;;;5.78;;
17079;SDS011;8655;57.106;-2.088;2023-07-08T08:20:58;15.70;;;5.45;;
17079;SDS011;8655;57.106;-2.088;2023-07-08T08:23:24;17.80;;;6.07;;
17079;SDS011;8655;57.106;-2.088;2023-07-08T08:25:50;22.27;;;5.15;;
17079;SDS011;8655;57.106;-2.088;2023-07-08T08:28:16;22.30;;;5.95;;
17079;SDS011;8655;57.106;-2.088;2023-07-08T08:30:46;21.15;;;6.28;;
17079;SDS011;8655;57.106;-2.088;2023-07-08T08:33:15;25.23;;;6.55;;
17079;SDS011;8655;57.106;-2.088;2023-07-08T08:35:42;24.58;;;6.18;;
17079;SDS011;8655;57.106;-2.088;2023-07-08T08:38:08;20.08;;;6.10;;
17079;SDS011;8655;57.106;-2.088;2023-07-08T08:40:34;16.48;;;5.63;;
17079;SDS011;8655;57.106;-2.088;2023-07-08T08:43:02;26.80;;;6.53;;
17079;SDS011;8655;57.106;-2.088;2023-07-08T08:45:32;19.15;;;5.55;;
17079;SDS011;8655;57.106;-2.088;2023-07-08T08:48:15;17.50;;;5.97;;
17079;SDS011;8655;57.106;-2.088;2023-07-08T08:50:51;23.67;;;5.90;;
17079;SDS011;8655;57.106;-2.088;2023-07-08T08:53:21;16.25;;;5.55;;
17079;SDS011;8655;57.106;-2.088;2023-07-08T08:55:55;15.38;;;5.45;;
17079;SDS011;8655;57.106;-2.088;2023-07-08T09:01:13;15.63;;;5.40;;
17079;SDS011;8655;57.106;-2.088;2023-07-08T09:06:34;17.55;;;5.72;;
17079;SDS011;8655;57.106;-2.088;2023-07-08T09:09:05;13.68;;;5.32;;
17079;SDS011;8655;57.106;-2.088;2023-07-08T09:14:31;17.55;;;6.00;;
17079;SDS011;8655;57.106;-2.088;2023-07-08T09:17:19;20.30;;;6.10;;
17079;SDS011;8655;57.106;-2.088;2023-07-08T09:24:59;14.20;;;5.82;;
17079;SDS011;8655;57.106;-2.088;2023-07-08T09:27:26;20.20;;;6.22;;
17079;SDS011;8655;57.106;-2.088;2023-07-08T09:29:52;16.13;;;5.75;;
17079;SDS011;8655;57.106;-2.088;2023-07-08T09:32:22;25.40;;;7.05;;
17079;SDS011;8655;57.106;-2.088;2023-07-08T09:35:02;19.90;;;6.30;;
17079;SDS011;8655;57.106;-2.088;2023-07-08T09:37:32;23.08;;;5.93;;
17079;SDS011;8655;57.106;-2.088;2023-07-08T09:40:00;18.33;;;5.80;;
17079;SDS011;8655;57.106;-2.088;2023-07-08T09:42:30;22.20;;;6.68;;
17079;SDS011;8655;57.106;-2.088;2023-07-08T09:44:59;23.23;;;6.00;;
17079;SDS011;8655;57.106;-2.088;2023-07-08T09:47:35;15.15;;;5.18;;
17079;SDS011;8655;57.106;-2.088;2023-07-08T09:50:16;16.13;;;5.35;;
17079;SDS011;8655;57.106;-2.088;2023-07-08T09:52:49;19.55;;;6.30;;
17079;SDS011;8655;57.106;-2.088;2023-07-08T09:55:16;19.92;;;5.70;;
17079;SDS011;8655;57.106;-2.088;2023-07-08T09:57:43;15.70;;;5.40;;
17079;SDS011;8655;57.106;-2.088;2023-07-08T10:00:13;18.45;;;5.80;;
17079;SDS011;8655;57.106;-2.088;2023-07-08T10:02:43;15.52;;;5.78;;
17079;SDS011;8655;57.106;-2.088;2023-07-08T10:05:16;22.23;;;6.80;;
17079;SDS011;8655;57.106;-2.088;2023-07-08T10:07:51;20.58;;;5.95;;
17079;SDS011;8655;57.106;-2.088;2023-07-08T10:10:22;17.83;;;6.05;;
17079;SDS011;8655;57.106;-2.088;2023-07-08T10:12:56;20.02;;;6.28;;
17079;SDS011;8655;57.106;-2.088;2023-07-08T10:15:28;19.92;;;6.47;;
17079;SDS011;8655;57.106;-2.088;2023-07-08T10:18:02;18.73;;;6.13;;
17079;SDS011;8655;57.106;-2.088;2023-07-08T10:20:52;21.30;;;6.47;;
17079;SDS011;8655;57.106;-2.088;2023-07-08T10:23:44;21.20;;;6.10;;
17079;SDS011;8655;57.106;-2.088;2023-07-08T10:26:31;21.95;;;6.65;;
17079;SDS011;8655;57.106;-2.088;2023-07-08T10:29:04;20.98;;;6.47;;
17079;SDS011;8655;57.106;-2.088;2023-07-08T10:32:00;22.50;;;6.53;;
17079;SDS011;8655;57.106;-2.088;2023-07-08T10:37:20;21.85;;;6.40;;
17079;SDS011;8655;57.106;-2.088;2023-07-08T10:57:01;28.83;;;6.72;;
17079;SDS011;8655;57.106;-2.088;2023-07-08T11:08:55;22.77;;;6.57;;
17079;SDS011;8655;57.106;-2.088;2023-07-08T11:14:45;29.48;;;6.70;;
17079;SDS011;8655;57.106;-2.088;2023-07-08T11:16:52;21.75;;;6.82;;
17079;SDS011;8655;57.106;-2.088;2023-07-08T11:19:20;29.15;;;6.78;;
17079;SDS011;8655;57.106;-2.088;2023-07-08T11:22:08;19.80;;;6.05;;
17079;SDS011;8655;57.106;-2.088;2023-07-08T11:24:45;27.00;;;7.50;;
17079;SDS011;8655;57.106;-2.088;2023-07-08T11:32:22;17.38;;;6.07;;
17079;SDS011;8655;57.106;-2.088;2023-07-08T11:34:52;28.58;;;7.18;;
17079;SDS011;8655;57.106;-2.088;2023-07-08T11:37:19;26.48;;;6.80;;
17079;SDS011;8655;57.106;-2.088;2023-07-08T11:39:47;23.92;;;6.30;;
17079;SDS011;8655;57.106;-2.088;2023-07-08T11:42:43;28.40;;;6.60;;
17079;SDS011;8655;57.106;-2.088;2023-07-08T11:45:24;25.77;;;6.68;;
17079;SDS011;8655;57.106;-2.088;2023-07-08T11:47:52;19.60;;;6.20;;
17079;SDS011;8655;57.106;-2.088;2023-07-08T11:50:29;22.27;;;6.00;;
17079;SDS011;8655;57.106;-2.088;2023-07-08T11:53:00;23.52;;;6.32;;
17079;SDS011;8655;57.106;-2.088;2023-07-08T12:03:49;23.20;;;7.05;;
17079;SDS011;8655;57.106;-2.088;2023-07-08T12:08:56;24.20;;;6.10;;
17079;SDS011;8655;57.106;-2.088;2023-07-08T12:11:25;22.10;;;5.95;;
17079;SDS011;8655;57.106;-2.088;2023-07-08T12:13:56;22.05;;;6.68;;
17079;SDS011;8655;57.106;-2.088;2023-07-08T12:16:28;20.52;;;5.57;;
17079;SDS011;8655;57.106;-2.088;2023-07-08T12:18:55;25.10;;;6.85;;
17079;SDS011;8655;57.106;-2.088;2023-07-08T12:24:04;23.83;;;6.80;;
17079;SDS011;8655;57.106;-2.088;2023-07-08T12:26:32;23.98;;;6.57;;
17079;SDS011;8655;57.106;-2.088;2023-07-08T12:28:58;21.63;;;6.30;;
17079;SDS011;8655;57.106;-2.088;2023-07-08T12:31:24;21.83;;;5.90;;
17079;SDS011;8655;57.106;-2.088;2023-07-08T12:33:50;27.83;;;6.15;;
17079;SDS011;8655;57.106;-2.088;2023-07-08T12:36:20;24.10;;;6.38;;
17079;SDS011;8655;57.106;-2.088;2023-07-08T12:38:48;19.35;;;6.03;;
17079;SDS011;8655;57.106;-2.088;2023-07-08T12:41:19;22.73;;;6.43;;
17079;SDS011;8655;57.106;-2.088;2023-07-08T12:44:15;27.30;;;5.82;;
17079;SDS011;8655;57.106;-2.088;2023-07-08T12:46:44;25.88;;;6.20;;
17079;SDS011;8655;57.106;-2.088;2023-07-08T12:49:12;23.27;;;6.30;;
17079;SDS011;8655;57.106;-2.088;2023-07-08T12:51:41;25.75;;;7.05;;
17079;SDS011;8655;57.106;-2.088;2023-07-08T12:54:08;21.98;;;6.65;;
17079;SDS011;8655;57.106;-2.088;2023-07-08T12:56:35;24.42;;;6.82;;
17079;SDS011;8655;57.106;-2.088;2023-07-08T12:59:02;21.92;;;5.82;;
17079;SDS011;8655;57.106;-2.088;2023-07-08T13:01:31;29.20;;;7.38;;
17079;SDS011;8655;57.106;-2.088;2023-07-08T13:04:00;25.83;;;6.85;;
17079;SDS011;8655;57.106;-2.088;2023-07-08T13:06:30;20.83;;;6.30;;
17079;SDS011;8655;57.106;-2.088;2023-07-08T13:09:22;27.25;;;6.70;;
17079;SDS011;8655;57.106;-2.088;2023-07-08T13:11:51;23.77;;;6.00;;
17079;SDS011;8655;57.106;-2.088;2023-07-08T13:14:20;29.27;;;7.30;;
17079;SDS011;8655;57.106;-2.088;2023-07-08T13:16:49;22.98;;;6.45;;
17079;SDS011;8655;57.106;-2.088;2023-07-08T13:19:15;24.60;;;6.60;;
17079;SDS011;8655;57.106;-2.088;2023-07-08T13:21:41;23.83;;;6.13;;
17079;SDS011;8655;57.106;-2.088;2023-07-08T13:24:10;21.85;;;6.05;;
17079;SDS011;8655;57.106;-2.088;2023-07-08T13:26:36;31.15;;;6.63;;
17079;SDS011;8655;57.106;-2.088;2023-07-08T13:29:13;32.83;;;7.53;;
17079;SDS011;8655;57.106;-2.088;2023-07-08T13:31:42;26.27;;;6.60;;
17079;SDS011;8655;57.106;-2.088;2023-07-08T13:34:19;25.20;;;6.72;;
17079;SDS011;8655;57.106;-2.088;2023-07-08T13:36:49;27.52;;;6.88;;
17079;SDS011;8655;57.106;-2.088;2023-07-08T13:41:59;23.20;;;6.07;;
17079;SDS011;8655;57.106;-2.088;2023-07-08T13:44:27;27.95;;;7.03;;
17079;SDS011;8655;57.106;-2.088;2023-07-08T13:46:54;22.05;;;6.18;;
17079;SDS011;8655;57.106;-2.088;2023-07-08T13:49:39;25.75;;;6.53;;
17079;SDS011;8655;57.106;-2.088;2023-07-08T13:54:41;24.02;;;6.78;;
17079;SDS011;8655;57.106;-2.088;2023-07-08T13:57:19;26.67;;;7.57;;
17079;SDS011;8655;57.106;-2.088;2023-07-08T13:59:47;21.98;;;5.80;;
17079;SDS011;8655;57.106;-2.088;2023-07-08T14:02:18;24.48;;;6.68;;
17079;SDS011;8655;57.106;-2.088;2023-07-08T14:04:52;21.25;;;6.30;;
17079;SDS011;8655;57.106;-2.088;2023-07-08T14:07:20;25.88;;;6.93;;
17079;SDS011;8655;57.106;-2.088;2023-07-08T14:09:49;25.70;;;7.10;;
17079;SDS011;8655;57.106;-2.088;2023-07-08T14:12:14;18.58;;;6.10;;
17079;SDS011;8655;57.106;-2.088;2023-07-08T14:14:40;20.77;;;6.00;;
17079;SDS011;8655;57.106;-2.088;2023-07-08T14:17:08;34.35;;;7.32;;
17079;SDS011;8655;57.106;-2.088;2023-07-08T14:19:39;92.72;;;12.93;;
17079;SDS011;8655;57.106;-2.088;2023-07-08T14:24:38;38.17;;;8.32;;
17079;SDS011;8655;57.106;-2.088;2023-07-08T14:27:04;34.33;;;7.60;;
17079;SDS011;8655;57.106;-2.088;2023-07-08T14:29:37;35.38;;;7.70;;
17079;SDS011;8655;57.106;-2.088;2023-07-08T14:32:03;29.42;;;7.10;;
17079;SDS011;8655;57.106;-2.088;2023-07-08T14:34:29;22.60;;;5.80;;
17079;SDS011;8655;57.106;-2.088;2023-07-08T14:36:58;23.35;;;6.18;;
17079;SDS011;8655;57.106;-2.088;2023-07-08T14:39:24;27.20;;;7.35;;
17079;SDS011;8655;57.106;-2.088;2023-07-08T14:41:50;18.67;;;6.38;;
17079;SDS011;8655;57.106;-2.088;2023-07-08T14:44:31;28.42;;;6.75;;
17079;SDS011;8655;57.106;-2.088;2023-07-08T14:46:59;30.10;;;6.10;;
17079;SDS011;8655;57.106;-2.088;2023-07-08T14:49:26;20.83;;;5.93;;
17079;SDS011;8655;57.106;-2.088;2023-07-08T14:51:52;21.83;;;5.63;;
17079;SDS011;8655;57.106;-2.088;2023-07-08T14:54:18;19.05;;;6.13;;
17079;SDS011;8655;57.106;-2.088;2023-07-08T14:56:45;17.83;;;6.15;;
17079;SDS011;8655;57.106;-2.088;2023-07-08T14:59:17;18.52;;;5.90;;
17079;SDS011;8655;57.106;-2.088;2023-07-08T15:01:46;16.90;;;5.30;;
17079;SDS011;8655;57.106;-2.088;2023-07-08T15:04:13;17.60;;;5.93;;
17079;SDS011;8655;57.106;-2.088;2023-07-08T15:06:41;20.30;;;6.28;;
17079;SDS011;8655;57.106;-2.088;2023-07-08T15:09:08;18.55;;;5.70;;
17079;SDS011;8655;57.106;-2.088;2023-07-08T15:11:35;22.13;;;5.80;;
17079;SDS011;8655;57.106;-2.088;2023-07-08T15:14:03;18.65;;;5.20;;
17079;SDS011;8655;57.106;-2.088;2023-07-08T15:16:30;21.92;;;5.85;;
17079;SDS011;8655;57.106;-2.088;2023-07-08T15:18:56;18.67;;;5.63;;
17079;SDS011;8655;57.106;-2.088;2023-07-08T15:21:22;17.45;;;6.00;;
17079;SDS011;8655;57.106;-2.088;2023-07-08T15:23:48;20.40;;;6.25;;
17079;SDS011;8655;57.106;-2.088;2023-07-08T15:26:14;14.73;;;4.78;;
17079;SDS011;8655;57.106;-2.088;2023-07-08T15:28:41;18.60;;;5.20;;
17079;SDS011;8655;57.106;-2.088;2023-07-08T15:31:22;14.77;;;5.65;;
17079;SDS011;8655;57.106;-2.088;2023-07-08T15:33:50;17.30;;;5.75;;